Weezie Cenac — WDH3888 — position and weather

sailwx.info

Track history (hours):
 
Tides and Currents Weather Stations Pressure Air Temp Water Temp Dewpoint Dewpoint Depression Visibility Wind Speed Wind Dir Waves Ship Positions

Weezie Cenac

Owner: Cenac Marine Services, Houma, LA. More information available from US FCC via Universal Licensing System and Coast Guard Vessel Documentation Center.

Last reported at 2018-Jun-21 08:14 UTC. Time now 2018-Jun-21 12:25 UTC.
Position N 29°30' W 094°52'.

Length 22 m; draft 1.7 m.

Type: Ship (hazmat cat B). MMSI: 367611960.

Date/timePositionNaut miles runAvg speedWind from/ knotsBaromVisibWave heightAir tempDewpointWater temp
2018-Jun-21 08:14N 29°30' W 094°52'5 7.0
2018-Jun-21 07:27N 29°25' W 094°50'3 6.0
2018-Jun-21 06:53N 29°22' W 094°47'3 5.2
2018-Jun-21 06:20N 29°24' W 094°45'2 5.2
2018-Jun-21 06:00N 29°25' W 094°43'4 5.1
2018-Jun-21 05:15N 29°28' W 094°40'2 5.4
2018-Jun-21 04:50N 29°29' W 094°38'2 5.4
2018-Jun-21 04:30N 29°29' W 094°36'3 5.7
2018-Jun-21 03:55N 29°30' W 094°32'3 5.2
2018-Jun-21 03:18N 29°32' W 094°29'1 4.9
2018-Jun-21 03:00N 29°33' W 094°28'3 3.9
2018-Jun-21 02:22N 29°34' W 094°25'1 3.3
2018-Jun-21 02:00N 29°35' W 094°25'1 2.8
2018-Jun-21 01:29N 29°36' W 094°23'2 4.0
2018-Jun-21 01:00N 29°37' W 094°21'2 5.0
2018-Jun-21 00:30N 29°38' W 094°19'3 5.2
2018-Jun-21 00:01N 29°39' W 094°16'3 5.3
2018-Jun-20 23:30N 29°40' W 094°14'2 4.8
2018-Jun-20 23:01N 29°41' W 094°11'2 4.8
2018-Jun-20 22:30N 29°42' W 094°08'3 5.0
2018-Jun-20 22:00N 29°44' W 094°06'2 4.8
2018-Jun-20 21:30N 29°45' W 094°04'3 5.1
2018-Jun-20 21:01N 29°47' W 094°02'3 5.2
2018-Jun-20 20:30N 29°49' W 093°60'2 4.9
2018-Jun-20 20:00N 29°50' W 093°57'3 5.7
2018-Jun-20 19:31N 29°52' W 093°56'3 6.0
2018-Jun-20 19:01N 29°55' W 093°54'3 6.0
2018-Jun-20 18:30N 29°57' W 093°52'3 5.4
2018-Jun-20 18:01N 29°59' W 093°49'3 5.4
2018-Jun-20 17:31N 29°60' W 093°46'3 5.3
2018-Jun-20 17:00N 30°02' W 093°44'2 4.8
2018-Jun-20 16:30N 30°03' W 093°42'2 4.9
2018-Jun-20 16:00N 30°04' W 093°39'2 4.8
2018-Jun-20 15:29N 30°04' W 093°36'2 4.3
2018-Jun-20 14:58N 30°04' W 093°34'2 4.3
2018-Jun-20 14:28N 30°04' W 093°31'2 4.2
2018-Jun-20 14:00N 30°04' W 093°29'2 4.1
2018-Jun-20 13:31N 30°04' W 093°27'2 3.7
2018-Jun-20 13:00N 30°04' W 093°25'2 3.7
2018-Jun-20 12:30N 30°04' W 093°22'1 2.7
2018-Jun-20 11:58N 30°04' W 093°21'1 2.8
2018-Jun-20 11:30N 30°05' W 093°20'2 4.6
2018-Jun-20 11:00N 30°07' W 093°20'1 1.3
2018-Jun-20 10:30N 30°08' W 093°20'0 0.6
2018-Jun-20 10:00N 30°08' W 093°19'0 0.1
2018-Jun-20 09:29N 30°08' W 093°19'0 0.0
2018-Jun-20 09:00N 30°08' W 093°19'0 0.0
2018-Jun-20 08:30N 30°08' W 093°19'0 0.0
2018-Jun-20 08:00N 30°08' W 093°19'0 0.0
2018-Jun-20 07:30N 30°08' W 093°19'0 0.0
2018-Jun-20 07:00N 30°08' W 093°19'0 0.0
2018-Jun-20 06:30N 30°08' W 093°19'0 0.0
2018-Jun-20 06:00N 30°08' W 093°19'0 0.0
2018-Jun-20 05:30N 30°08' W 093°19'0 0.0
2018-Jun-20 05:00N 30°08' W 093°19'0 0.0
2018-Jun-20 04:30N 30°08' W 093°19'0 0.0
2018-Jun-20 04:00N 30°08' W 093°19'0 0.0
2018-Jun-20 03:30N 30°08' W 093°19'0 0.0
2018-Jun-20 03:00N 30°08' W 093°19'0 0.0
2018-Jun-20 02:30N 30°08' W 093°19'0 0.0
2018-Jun-20 02:00N 30°08' W 093°19'0 0.0
2018-Jun-20 01:30N 30°08' W 093°19'0 0.0
2018-Jun-20 01:00N 30°08' W 093°19'0 0.0
2018-Jun-20 00:30N 30°08' W 093°19'0 0.0
2018-Jun-20 00:00N 30°08' W 093°19'0 0.0
2018-Jun-19 23:30N 30°08' W 093°19'0 0.0
2018-Jun-19 23:00N 30°08' W 093°19'0 0.0
2018-Jun-19 22:30N 30°08' W 093°19'0 0.0
2018-Jun-19 22:00N 30°08' W 093°19'0 0.0
2018-Jun-19 21:30N 30°08' W 093°19'0 0.0
2018-Jun-19 21:00N 30°08' W 093°19'0 0.0
2018-Jun-19 20:30N 30°08' W 093°19'0 0.0
2018-Jun-19 20:00N 30°08' W 093°19'0 0.0
2018-Jun-19 19:30N 30°08' W 093°19'0 0.0
2018-Jun-19 19:00N 30°08' W 093°19'0 0.0
2018-Jun-19 18:30N 30°08' W 093°19'0 0.0
2018-Jun-19 18:00N 30°08' W 093°19'0 0.0
2018-Jun-19 17:30N 30°08' W 093°19'0 0.0
2018-Jun-19 17:00N 30°08' W 093°19'0 0.0
2018-Jun-19 16:30N 30°08' W 093°19'0 0.0
2018-Jun-19 16:00N 30°08' W 093°19'0 0.0
2018-Jun-19 15:30N 30°08' W 093°19'0 0.1
2018-Jun-19 15:00N 30°08' W 093°19'1 2.3
2018-Jun-19 14:30N 30°07' W 093°20'2 4.9
2018-Jun-19 14:00N 30°05' W 093°20'3 5.4
2018-Jun-19 13:30N 30°04' W 093°23'3 5.7
2018-Jun-19 13:00N 30°04' W 093°26'3 5.9
2018-Jun-19 12:30N 30°04' W 093°30'3 6.0
2018-Jun-19 11:57N 30°04' W 093°34'3 5.7
2018-Jun-19 11:28N 30°04' W 093°37'3 5.0
2018-Jun-19 10:57N 30°04' W 093°40'2 4.3
2018-Jun-19 10:30N 30°03' W 093°42'3 5.0
2018-Jun-19 10:00N 30°02' W 093°44'3 5.1
2018-Jun-19 09:30N 30°00' W 093°46'3 5.2
2018-Jun-19 09:00N 29°59' W 093°49'3 5.5
2018-Jun-19 08:30N 29°57' W 093°52'3 5.2
2018-Jun-19 08:00N 29°55' W 093°53'2 5.0
2018-Jun-19 07:30N 29°53' W 093°55'2 4.9
2018-Jun-19 07:00N 29°51' W 093°57'2 4.8
2018-Jun-19 06:30N 29°49' W 093°58'3 5.4
2018-Jun-19 06:00N 29°48' W 094°01'3 5.4
2018-Jun-19 05:30N 29°46' W 094°03'3 5.4
2018-Jun-19 05:00N 29°44' W 094°05'3 5.3
2018-Jun-19 04:30N 29°43' W 094°08'3 5.1
2018-Jun-19 04:00N 29°41' W 094°10'2 3.2
2018-Jun-19 03:30N 29°41' W 094°12'3 5.2
2018-Jun-19 03:00N 29°40' W 094°15'2 3.9
2018-Jun-19 02:30N 29°39' W 094°17'2 3.9
2018-Jun-19 02:00N 29°38' W 094°19'3 4.5
2018-Jun-19 01:27N 29°37' W 094°21'2 4.0
2018-Jun-19 01:00N 29°36' W 094°23'2 3.6
2018-Jun-19 00:21N 29°34' W 094°25'20 5.8
2018-Jun-18 20:52N 29°24' W 094°45'2 5.1
2018-Jun-18 20:29N 29°23' W 094°47'17 7.1
2018-Jun-18 18:06N 29°37' W 094°57'3 7.9
2018-Jun-18 17:47N 29°39' W 094°58'2 7.6
2018-Jun-18 17:30N 29°41' W 094°59'  
Track history (hours):
 
Tides and Currents Weather Stations Pressure Air Temp Water Temp Dewpoint Dewpoint Depression Visibility Wind Speed Wind Dir Waves Ship Positions

Weezie Cenac

Owner: Cenac Marine Services, Houma, LA. More information available from US FCC via Universal Licensing System and Coast Guard Vessel Documentation Center.

Last reported at 2018-Jun-21 08:14 UTC. Time now 2018-Jun-21 12:25 UTC.
Position N 29°30' W 094°52'.

Length 22 m; draft 1.7 m.

Type: Ship (hazmat cat B). MMSI: 367611960.

Date/timePositionNaut miles runAvg speedWind from/ knotsBaromVisibWave heightAir tempDewpointWater temp
2018-Jun-21 08:14N 29°30' W 094°52'5 7.0
2018-Jun-21 07:27N 29°25' W 094°50'3 6.0
2018-Jun-21 06:53N 29°22' W 094°47'3 5.2
2018-Jun-21 06:20N 29°24' W 094°45'2 5.2
2018-Jun-21 06:00N 29°25' W 094°43'4 5.1
2018-Jun-21 05:15N 29°28' W 094°40'2 5.4
2018-Jun-21 04:50N 29°29' W 094°38'2 5.4
2018-Jun-21 04:30N 29°29' W 094°36'3 5.7
2018-Jun-21 03:55N 29°30' W 094°32'3 5.2
2018-Jun-21 03:18N 29°32' W 094°29'1 4.9
2018-Jun-21 03:00N 29°33' W 094°28'3 3.9
2018-Jun-21 02:22N 29°34' W 094°25'1 3.3
2018-Jun-21 02:00N 29°35' W 094°25'1 2.8
2018-Jun-21 01:29N 29°36' W 094°23'2 4.0
2018-Jun-21 01:00N 29°37' W 094°21'2 5.0
2018-Jun-21 00:30N 29°38' W 094°19'3 5.2
2018-Jun-21 00:01N 29°39' W 094°16'3 5.3
2018-Jun-20 23:30N 29°40' W 094°14'2 4.8
2018-Jun-20 23:01N 29°41' W 094°11'2 4.8
2018-Jun-20 22:30N 29°42' W 094°08'3 5.0
2018-Jun-20 22:00N 29°44' W 094°06'2 4.8
2018-Jun-20 21:30N 29°45' W 094°04'3 5.1
2018-Jun-20 21:01N 29°47' W 094°02'3 5.2
2018-Jun-20 20:30N 29°49' W 093°60'2 4.9
2018-Jun-20 20:00N 29°50' W 093°57'3 5.7
2018-Jun-20 19:31N 29°52' W 093°56'3 6.0
2018-Jun-20 19:01N 29°55' W 093°54'3 6.0
2018-Jun-20 18:30N 29°57' W 093°52'3 5.4
2018-Jun-20 18:01N 29°59' W 093°49'3 5.4
2018-Jun-20 17:31N 29°60' W 093°46'3 5.3
2018-Jun-20 17:00N 30°02' W 093°44'2 4.8
2018-Jun-20 16:30N 30°03' W 093°42'2 4.9
2018-Jun-20 16:00N 30°04' W 093°39'2 4.8
2018-Jun-20 15:29N 30°04' W 093°36'2 4.3
2018-Jun-20 14:58N 30°04' W 093°34'2 4.3
2018-Jun-20 14:28N 30°04' W 093°31'2 4.2
2018-Jun-20 14:00N 30°04' W 093°29'2 4.1
2018-Jun-20 13:31N 30°04' W 093°27'2 3.7
2018-Jun-20 13:00N 30°04' W 093°25'2 3.7
2018-Jun-20 12:30N 30°04' W 093°22'1 2.7
2018-Jun-20 11:58N 30°04' W 093°21'1 2.8
2018-Jun-20 11:30N 30°05' W 093°20'2 4.6
2018-Jun-20 11:00N 30°07' W 093°20'1 1.3
2018-Jun-20 10:30N 30°08' W 093°20'0 0.6
2018-Jun-20 10:00N 30°08' W 093°19'0 0.1
2018-Jun-20 09:29N 30°08' W 093°19'0 0.0
2018-Jun-20 09:00N 30°08' W 093°19'0 0.0
2018-Jun-20 08:30N 30°08' W 093°19'0 0.0
2018-Jun-20 08:00N 30°08' W 093°19'0 0.0
2018-Jun-20 07:30N 30°08' W 093°19'0 0.0
2018-Jun-20 07:00N 30°08' W 093°19'0 0.0
2018-Jun-20 06:30N 30°08' W 093°19'0 0.0
2018-Jun-20 06:00N 30°08' W 093°19'0 0.0
2018-Jun-20 05:30N 30°08' W 093°19'0 0.0
2018-Jun-20 05:00N 30°08' W 093°19'0 0.0
2018-Jun-20 04:30N 30°08' W 093°19'0 0.0
2018-Jun-20 04:00N 30°08' W 093°19'0 0.0
2018-Jun-20 03:30N 30°08' W 093°19'0 0.0
2018-Jun-20 03:00N 30°08' W 093°19'0 0.0
2018-Jun-20 02:30N 30°08' W 093°19'0 0.0
2018-Jun-20 02:00N 30°08' W 093°19'0 0.0
2018-Jun-20 01:30N 30°08' W 093°19'0 0.0
2018-Jun-20 01:00N 30°08' W 093°19'0 0.0
2018-Jun-20 00:30N 30°08' W 093°19'0 0.0
2018-Jun-20 00:00N 30°08' W 093°19'0 0.0
2018-Jun-19 23:30N 30°08' W 093°19'0 0.0
2018-Jun-19 23:00N 30°08' W 093°19'0 0.0
2018-Jun-19 22:30N 30°08' W 093°19'0 0.0
2018-Jun-19 22:00N 30°08' W 093°19'0 0.0
2018-Jun-19 21:30N 30°08' W 093°19'0 0.0
2018-Jun-19 21:00N 30°08' W 093°19'0 0.0
2018-Jun-19 20:30N 30°08' W 093°19'0 0.0
2018-Jun-19 20:00N 30°08' W 093°19'0 0.0
2018-Jun-19 19:30N 30°08' W 093°19'0 0.0
2018-Jun-19 19:00N 30°08' W 093°19'0 0.0
2018-Jun-19 18:30N 30°08' W 093°19'0 0.0
2018-Jun-19 18:00N 30°08' W 093°19'0 0.0
2018-Jun-19 17:30N 30°08' W 093°19'0 0.0
2018-Jun-19 17:00N 30°08' W 093°19'0 0.0
2018-Jun-19 16:30N 30°08' W 093°19'0 0.0
2018-Jun-19 16:00N 30°08' W 093°19'0 0.0
2018-Jun-19 15:30N 30°08' W 093°19'0 0.1
2018-Jun-19 15:00N 30°08' W 093°19'1 2.3
2018-Jun-19 14:30N 30°07' W 093°20'2 4.9
2018-Jun-19 14:00N 30°05' W 093°20'3 5.4
2018-Jun-19 13:30N 30°04' W 093°23'3 5.7
2018-Jun-19 13:00N 30°04' W 093°26'3 5.9
2018-Jun-19 12:30N 30°04' W 093°30'3 6.0
2018-Jun-19 11:57N 30°04' W 093°34'3 5.7
2018-Jun-19 11:28N 30°04' W 093°37'3 5.0
2018-Jun-19 10:57N 30°04' W 093°40'2 4.3
2018-Jun-19 10:30N 30°03' W 093°42'3 5.0
2018-Jun-19 10:00N 30°02' W 093°44'3 5.1
2018-Jun-19 09:30N 30°00' W 093°46'3 5.2
2018-Jun-19 09:00N 29°59' W 093°49'3 5.5
2018-Jun-19 08:30N 29°57' W 093°52'3 5.2
2018-Jun-19 08:00N 29°55' W 093°53'2 5.0
2018-Jun-19 07:30N 29°53' W 093°55'2 4.9
2018-Jun-19 07:00N 29°51' W 093°57'2 4.8
2018-Jun-19 06:30N 29°49' W 093°58'3 5.4
2018-Jun-19 06:00N 29°48' W 094°01'3 5.4
2018-Jun-19 05:30N 29°46' W 094°03'3 5.4
2018-Jun-19 05:00N 29°44' W 094°05'3 5.3
2018-Jun-19 04:30N 29°43' W 094°08'3 5.1
2018-Jun-19 04:00N 29°41' W 094°10'2 3.2
2018-Jun-19 03:30N 29°41' W 094°12'3 5.2
2018-Jun-19 03:00N 29°40' W 094°15'2 3.9
2018-Jun-19 02:30N 29°39' W 094°17'2 3.9
2018-Jun-19 02:00N 29°38' W 094°19'3 4.5
2018-Jun-19 01:27N 29°37' W 094°21'2 4.0
2018-Jun-19 01:00N 29°36' W 094°23'2 3.6
2018-Jun-19 00:21N 29°34' W 094°25'20 5.8
2018-Jun-18 20:52N 29°24' W 094°45'2 5.1
2018-Jun-18 20:29N 29°23' W 094°47'17 7.1
2018-Jun-18 18:06N 29°37' W 094°57'3 7.9
2018-Jun-18 17:47N 29°39' W 094°58'2 7.6
2018-Jun-18 17:30N 29°41' W 094°59'  

Dump ship's entire track history